createdAt,value
2022-09-05T00:00:19.275Z,99691.63
2022-09-05T00:01:43.211Z,99698.53
2022-09-05T00:03:25.928Z,99702.88
2022-09-05T00:04:38.302Z,99692.09
2022-09-05T00:05:57.642Z,99690.22
2022-09-05T00:07:37.407Z,99693.63
2022-09-05T00:08:56.961Z,99692.28
2022-09-05T00:10:20.709Z,99686.97
2022-09-05T00:11:45.803Z,99687.84
2022-09-05T00:12:50.713Z,99693.91
2022-09-05T00:14:48.723Z,99690.22
2022-09-05T00:16:31.515Z,99696.03
2022-09-05T00:18:44.065Z,99685.44
2022-09-05T00:24:17.136Z,99697.75
2022-09-05T00:24:24.769Z,99687.66
2022-09-05T00:24:28.563Z,99680.66
2022-09-05T00:25:30.165Z,99680.66
2022-09-05T00:27:02.967Z,99685.81
2022-09-05T00:28:25.268Z,99689.59
2022-09-05T00:30:30.709Z,99686.03
2022-09-05T00:31:55.520Z,99675.44
2022-09-05T00:33:16.894Z,99676.56
2022-09-05T00:34:47.716Z,99666.66
2022-09-05T00:36:02.573Z,99678.97
2022-09-05T00:37:05.489Z,99676.78
2022-09-05T00:38:40.031Z,99674.91
2022-09-05T00:39:47.945Z,99677.97
2022-09-05T00:41:07.114Z,99670.13
2022-09-05T00:42:17.842Z,99669.72
2022-09-05T00:43:24.758Z,99664.16
2022-09-05T00:44:33.198Z,99669.91
2022-09-05T00:45:43.558Z,99671.56
2022-09-05T00:46:59.238Z,99670.16
2022-09-05T00:48:17.370Z,99673.59
2022-09-05T00:49:30.021Z,99664.03
2022-09-05T00:50:58.677Z,99668.72
2022-09-05T00:52:10.135Z,99677.94
2022-09-05T00:53:19.752Z,99674.00
2022-09-05T00:54:43.498Z,99676.50
2022-09-05T00:56:04.249Z,99678.44
2022-09-05T00:57:38.773Z,99674.69
2022-09-05T00:58:58.994Z,99670.59
2022-09-05T01:00:43.096Z,99674.78
2022-09-05T01:01:58.304Z,99669.16
2022-09-05T01:03:25.233Z,99662.84
2022-09-05T01:04:57.774Z,99671.69
2022-09-05T01:06:30.298Z,99670.34
2022-09-05T01:07:50.828Z,99660.41
2022-09-05T01:09:14.495Z,99664.72
2022-09-05T01:10:39.162Z,99670.38
2022-09-05T01:12:31.692Z,99673.94
2022-09-05T01:13:57.925Z,99660.19
2022-09-05T01:15:55.650Z,99666.06
2022-09-05T01:17:17.467Z,99657.84
2022-09-05T01:18:31.869Z,99653.50
2022-09-05T01:19:55.642Z,99649.25
2022-09-05T01:21:29.109Z,99640.66
2022-09-05T01:23:08.471Z,99650.63
2022-09-05T01:24:42.739Z,99645.22
2022-09-05T01:26:18.790Z,99641.66
2022-09-05T01:29:14.217Z,99634.56
2022-09-05T01:30:13.287Z,99630.63
2022-09-05T01:31:21.169Z,99630.53
2022-09-05T01:32:53.015Z,99637.81
2022-09-05T01:34:43.252Z,99639.22
2022-09-05T01:36:05.221Z,99644.34
2022-09-05T01:37:29.657Z,99646.16
2022-09-05T01:39:58.084Z,99648.31
2022-09-05T01:40:30.125Z,99649.16
2022-09-05T01:41:39.305Z,99644.13
2022-09-05T01:42:45.801Z,99653.66
2022-09-05T01:44:12.213Z,99650.44
2022-09-05T01:45:39.693Z,99642.72
2022-09-05T01:46:45.881Z,99643.91
2022-09-05T01:47:58.045Z,99645.03
2022-09-05T01:49:08.817Z,99647.06
2022-09-05T01:50:29.706Z,99646.47
2022-09-05T01:51:40.621Z,99633.06
2022-09-05T01:53:02.615Z,99642.88
2022-09-05T01:54:33.789Z,99634.88
2022-09-05T01:56:06.139Z,99632.81
2022-09-05T01:57:32.813Z,99634.44
2022-09-05T01:58:50.065Z,99636.59
2022-09-05T01:59:57.169Z,99638.19
2022-09-05T02:01:26.623Z,99633.25
2022-09-05T02:03:06.859Z,99639.13
2022-09-05T02:04:21.649Z,99633.56
2022-09-05T02:05:48.900Z,99638.44
2022-09-05T02:07:15.218Z,99631.19
2022-09-05T02:08:46.613Z,99635.31
2022-09-05T02:10:32.940Z,99634.56
2022-09-05T02:12:00.592Z,99637.53
2022-09-05T02:13:20.650Z,99635.59
2022-09-05T02:14:48.701Z,99632.16
2022-09-05T02:16:12.476Z,99629.44
2022-09-05T02:17:31.918Z,99638.06
2022-09-05T02:18:54.300Z,99637.63
2022-09-05T02:20:14.500Z,99632.19
2022-09-05T02:21:56.838Z,99633.97
2022-09-05T02:23:37.608Z,99631.84
2022-09-05T02:24:45.442Z,99638.75
2022-09-05T02:26:29.933Z,99629.19
2022-09-05T02:28:05.578Z,99627.41
2022-09-05T02:29:29.730Z,99628.78
2022-09-05T02:30:48.549Z,99629.69
2022-09-05T02:32:18.332Z,99632.47
2022-09-05T02:33:34.603Z,99636.22
2022-09-05T02:34:54.217Z,99638.00
2022-09-05T02:36:10.234Z,99638.88
2022-09-05T02:40:31.194Z,99637.94
2022-09-05T02:41:57.190Z,99642.94
2022-09-05T02:45:13.249Z,99650.00
2022-09-05T02:45:18.727Z,99640.44
2022-09-05T02:45:21.698Z,99643.72
2022-09-05T02:45:27.547Z,99647.00
2022-09-05T02:46:58.725Z,99641.63
2022-09-05T02:48:32.284Z,99641.88
2022-09-05T02:52:30.654Z,99644.34
2022-09-05T02:57:25.273Z,99641.69
2022-09-05T02:57:29.018Z,99635.97
2022-09-05T02:57:33.719Z,99635.13
2022-09-05T02:57:39.466Z,99632.81
2022-09-05T02:58:06.649Z,99638.72
2022-09-05T02:59:12.921Z,99629.47
2022-09-05T03:00:21.306Z,99631.44
2022-09-05T03:01:40.507Z,99639.44
2022-09-05T03:03:00.571Z,99627.47
2022-09-05T03:04:20.875Z,99633.94
2022-09-05T03:05:32.759Z,99628.41
2022-09-05T03:07:01.420Z,99632.06
2022-09-05T03:08:18.631Z,99629.00
2022-09-05T03:09:34.560Z,99638.91
2022-09-05T03:11:11.980Z,99626.63
2022-09-05T03:12:45.595Z,99635.06
2022-09-05T03:14:17.980Z,99630.38
2022-09-05T03:16:04.876Z,99629.25
2022-09-05T03:17:37.467Z,99631.75
2022-09-05T03:18:48.545Z,99635.16
2022-09-05T03:20:02.746Z,99626.03
2022-09-05T03:21:12.075Z,99631.75
2022-09-05T03:22:16.943Z,99619.34
2022-09-05T03:24:00.318Z,99629.69
2022-09-05T03:25:05.190Z,99619.19
2022-09-05T03:26:34.930Z,99625.94
2022-09-05T03:28:04.773Z,99617.06
2022-09-05T03:29:25.532Z,99632.59
2022-09-05T03:31:06.298Z,99626.78
2022-09-05T03:32:08.540Z,99629.00
2022-09-05T03:34:02.035Z,99624.56
2022-09-05T03:35:54.168Z,99619.13
2022-09-05T03:37:17.789Z,99622.28
2022-09-05T03:38:40.273Z,99615.72
2022-09-05T03:40:23.071Z,99620.38
2022-09-05T03:41:45.356Z,99624.13
2022-09-05T03:43:02.598Z,99614.25
2022-09-05T03:44:27.830Z,99601.28
2022-09-05T03:45:57.237Z,99619.78
2022-09-05T03:47:36.871Z,99628.91
2022-09-05T03:48:41.880Z,99622.88
2022-09-05T03:52:21.350Z,99627.66
2022-09-05T03:57:08.398Z,99622.34
2022-09-05T03:57:15.203Z,99627.13
2022-09-05T03:57:24.924Z,99632.34
2022-09-05T03:57:42.207Z,99636.53
2022-09-05T03:59:22.428Z,99634.53
2022-09-05T04:00:34.658Z,99626.22
2022-09-05T04:08:06.182Z,99627.69
2022-09-05T04:08:13.520Z,99626.88
2022-09-05T04:08:16.192Z,99620.94
2022-09-05T04:08:26.395Z,99631.34
2022-09-05T04:08:30.795Z,99623.88
2022-09-05T04:10:04.722Z,99621.69
2022-09-05T04:11:27.988Z,99615.38
2022-09-05T04:12:49.741Z,99616.16
2022-09-05T04:14:02.461Z,99609.19
2022-09-05T04:15:32.736Z,99617.50
2022-09-05T04:16:51.460Z,99610.34
2022-09-05T04:18:03.879Z,99617.41
2022-09-05T04:19:24.461Z,99623.03
2022-09-05T04:20:47.789Z,99621.00
2022-09-05T04:22:06.520Z,99617.19
2022-09-05T04:23:15.839Z,99610.63
2022-09-05T04:24:41.945Z,99622.19
2022-09-05T04:26:11.660Z,99618.22
2022-09-05T04:27:29.504Z,99623.22
2022-09-05T04:28:53.549Z,99617.66
2022-09-05T04:30:13.011Z,99630.78
2022-09-05T04:31:34.359Z,99630.34
2022-09-05T04:33:11.136Z,99628.78
2022-09-05T04:34:28.204Z,99631.34
2022-09-05T04:35:41.228Z,99616.81
2022-09-05T04:36:45.243Z,99626.69
2022-09-05T04:38:17.704Z,99624.59
2022-09-05T04:39:19.868Z,99626.16
2022-09-05T04:40:57.471Z,99626.06
2022-09-05T04:42:14.283Z,99625.41
2022-09-05T04:43:31.103Z,99627.00
2022-09-05T04:44:55.636Z,99634.50
2022-09-05T04:46:31.547Z,99628.56
2022-09-05T04:47:46.820Z,99629.63
2022-09-05T04:48:57.149Z,99629.69
2022-09-05T04:50:08.993Z,99634.28
2022-09-05T04:51:29.227Z,99633.97
2022-09-05T04:52:47.929Z,99640.91
2022-09-05T04:54:08.565Z,99630.06
2022-09-05T04:55:16.359Z,99636.63
2022-09-05T04:56:26.660Z,99639.88
2022-09-05T04:57:49.643Z,99631.69
2022-09-05T05:02:23.413Z,99639.06
2022-09-05T05:06:00.331Z,99641.91
2022-09-05T05:06:11.033Z,99650.28
2022-09-05T05:06:11.537Z,99649.22
2022-09-05T05:06:19.978Z,99637.63
2022-09-05T05:07:24.835Z,99652.56
2022-09-05T05:08:39.131Z,99650.78
2022-09-05T05:10:12.053Z,99645.75
2022-09-05T05:18:00.439Z,99642.72
2022-09-05T05:18:01.692Z,99652.06
2022-09-05T05:18:07.040Z,99641.69
2022-09-05T05:18:13.566Z,99646.78
2022-09-05T05:18:36.379Z,99643.97
2022-09-05T05:20:02.164Z,99658.31
2022-09-05T05:21:20.831Z,99660.97
2022-09-05T05:22:23.225Z,99668.00
2022-09-05T05:23:36.779Z,99682.91
2022-09-05T05:24:48.722Z,99680.03
2022-09-05T05:26:00.117Z,99688.91
2022-09-05T05:27:11.536Z,99673.06
2022-09-05T05:28:26.828Z,99680.28
2022-09-05T05:29:56.141Z,99685.75
2022-09-05T05:31:13.699Z,99680.19
2022-09-05T05:32:43.522Z,99686.00
2022-09-05T05:33:51.078Z,99680.75
2022-09-05T05:35:03.536Z,99684.50
2022-09-05T05:36:08.467Z,99687.31
2022-09-05T05:37:32.025Z,99685.31
2022-09-05T05:38:34.193Z,99677.72
2022-09-05T05:39:45.733Z,99686.06
2022-09-05T05:41:50.162Z,99686.44
2022-09-05T05:43:25.783Z,99690.28
2022-09-05T06:00:55.469Z,99686.09
2022-09-05T06:02:30.891Z,99698.59
2022-09-05T06:04:00.650Z,99697.13
2022-09-05T06:05:56.763Z,99693.38
2022-09-05T06:06:59.227Z,99690.53
2022-09-05T06:11:18.100Z,99703.31
2022-09-05T06:14:49.841Z,99705.25
2022-09-05T06:14:59.827Z,99704.31
2022-09-05T06:15:01.053Z,99711.50
2022-09-05T06:15:12.287Z,99717.09
2022-09-05T06:16:44.631Z,99716.84
2022-09-05T06:18:15.711Z,99715.78
2022-09-05T06:20:45.874Z,99711.69
2022-09-05T06:22:07.537Z,99709.06
2022-09-05T06:23:34.797Z,99723.81
2022-09-05T06:25:16.327Z,99722.75
2022-09-05T06:26:45.777Z,99719.53
2022-09-05T06:28:19.484Z,99722.28
2022-09-05T06:29:38.385Z,99717.78
2022-09-05T06:30:50.816Z,99711.84
2022-09-05T06:32:56.703Z,99711.97
2022-09-05T06:34:33.496Z,99717.16
2022-09-05T06:36:16.808Z,99718.09
2022-09-05T06:37:37.906Z,99705.28
2022-09-05T06:38:46.644Z,99707.41
2022-09-05T06:39:49.262Z,99713.69
2022-09-05T06:41:00.576Z,99710.63
2022-09-05T06:42:30.579Z,99711.78
2022-09-05T06:44:03.080Z,99721.38
2022-09-05T06:45:29.136Z,99714.84
2022-09-05T06:47:22.080Z,99713.34
2022-09-05T06:48:27.811Z,99712.16
2022-09-05T06:50:24.534Z,99709.28
2022-09-05T06:51:45.003Z,99709.78
2022-09-05T06:53:19.953Z,99717.03
2022-09-05T06:55:00.323Z,99717.22
2022-09-05T06:56:25.684Z,99718.28
2022-09-05T06:57:36.309Z,99712.69
2022-09-05T06:59:41.120Z,99717.59
2022-09-05T07:00:49.113Z,99720.22
2022-09-05T07:02:00.561Z,99720.81
2022-09-05T07:03:22.886Z,99714.97
2022-09-05T07:05:37.028Z,99716.34
2022-09-05T07:07:01.090Z,99718.06
2022-09-05T07:08:44.614Z,99720.00
2022-09-05T07:10:16.928Z,99725.59
2022-09-05T07:11:44.950Z,99719.38
2022-09-05T07:12:52.927Z,99724.88
2022-09-05T07:14:09.668Z,99724.25
2022-09-05T07:15:32.176Z,99722.69
2022-09-05T07:16:55.035Z,99721.94
2022-09-05T07:18:10.240Z,99724.00
2022-09-05T07:19:27.575Z,99731.75
2022-09-05T07:21:16.815Z,99728.94
2022-09-05T07:22:46.092Z,99737.75
2022-09-05T07:24:11.153Z,99735.66
2022-09-05T07:25:18.748Z,99742.56
2022-09-05T07:26:37.997Z,99735.06
2022-09-05T07:28:26.042Z,99736.16
2022-09-05T07:29:22.792Z,99739.72
2022-09-05T07:30:26.289Z,99735.88
2022-09-05T07:31:37.832Z,99733.69
2022-09-05T07:32:48.984Z,99733.69
2022-09-05T07:34:05.532Z,99731.88
2022-09-05T07:35:31.187Z,99736.00
2022-09-05T07:36:48.144Z,99739.91
2022-09-05T07:38:14.605Z,99741.75
2022-09-05T07:39:28.636Z,99737.91
2022-09-05T07:40:39.320Z,99739.53
2022-09-05T07:41:51.098Z,99739.63
2022-09-05T07:43:09.027Z,99743.66
2022-09-05T07:44:23.680Z,99741.56
2022-09-05T07:45:29.033Z,99743.53
2022-09-05T07:46:35.841Z,99736.22
2022-09-05T07:47:43.347Z,99741.56
2022-09-05T07:48:59.619Z,99741.31
2022-09-05T07:51:20.278Z,99750.44
2022-09-05T07:56:47.304Z,99739.81
2022-09-05T07:56:49.252Z,99742.78
2022-09-05T07:56:55.404Z,99743.22
2022-09-05T07:57:08.359Z,99750.66
2022-09-05T07:57:43.728Z,99748.59
2022-09-05T07:58:55.124Z,99743.25
2022-09-05T08:00:24.677Z,99752.00
2022-09-05T08:01:30.377Z,99732.00
2022-09-05T08:02:51.469Z,99750.47
2022-09-05T08:03:57.294Z,99751.56
2022-09-05T08:05:06.332Z,99752.41
2022-09-05T08:06:35.914Z,99741.00
2022-09-05T08:07:51.895Z,99751.16
2022-09-05T08:09:21.512Z,99746.56
2022-09-05T08:10:54.977Z,99744.88
2022-09-05T08:12:09.719Z,99749.25
2022-09-05T08:13:23.375Z,99746.56
2022-09-05T08:14:54.374Z,99740.69
2022-09-05T08:16:10.176Z,99742.91
2022-09-05T08:17:21.577Z,99748.34
2022-09-05T08:19:10.699Z,99746.41
2022-09-05T08:21:00.658Z,99744.53
2022-09-05T08:22:06.919Z,99741.53
2022-09-05T08:23:46.900Z,99735.06
2022-09-05T08:24:59.615Z,99738.00
2022-09-05T08:26:14.657Z,99739.44
2022-09-05T08:27:42.718Z,99730.16
2022-09-05T08:29:04.555Z,99728.97
2022-09-05T08:30:26.375Z,99728.59
2022-09-05T08:31:42.665Z,99739.00
2022-09-05T08:32:49.404Z,99736.50
2022-09-05T08:33:56.198Z,99749.38
2022-09-05T08:35:24.436Z,99736.44
2022-09-05T08:36:46.285Z,99728.81
2022-09-05T08:37:51.517Z,99741.66
2022-09-05T08:38:55.472Z,99739.22
2022-09-05T08:40:10.665Z,99732.75
2022-09-05T08:41:26.036Z,99731.50
2022-09-05T08:45:56.529Z,99744.50
2022-09-05T08:46:44.173Z,99745.69
2022-09-05T08:46:49.269Z,99746.34
2022-09-05T08:48:17.423Z,99750.34
2022-09-05T08:49:41.404Z,99751.75
2022-09-05T08:51:22.394Z,99748.31
2022-09-05T08:52:42.916Z,99754.00
2022-09-05T08:54:22.791Z,99748.41
2022-09-05T08:55:39.738Z,99752.25
2022-09-05T08:57:19.143Z,99747.34
2022-09-05T08:58:47.972Z,99741.09
2022-09-05T09:00:18.951Z,99739.03
2022-09-05T09:01:31.683Z,99744.34
2022-09-05T09:03:11.841Z,99743.50
2022-09-05T09:04:29.792Z,99743.06
2022-09-05T09:06:12.791Z,99743.53
2022-09-05T09:07:51.423Z,99738.19
2022-09-05T09:09:12.707Z,99752.53
2022-09-05T09:10:26.852Z,99748.72
2022-09-05T09:11:37.619Z,99750.28
2022-09-05T09:12:58.125Z,99752.28
2022-09-05T09:14:31.808Z,99741.75
2022-09-05T09:15:52.960Z,99730.13
2022-09-05T09:17:09.789Z,99743.50
2022-09-05T09:18:15.770Z,99741.28
2022-09-05T09:19:32.431Z,99738.88
2022-09-05T09:20:45.716Z,99731.38
2022-09-05T09:22:20.418Z,99743.22
2022-09-05T09:23:32.677Z,99744.16
2022-09-05T09:25:12.000Z,99736.09
2022-09-05T09:26:16.877Z,99742.53
2022-09-05T09:28:04.347Z,99740.69
2022-09-05T09:29:10.772Z,99734.41
2022-09-05T09:30:14.651Z,99728.34
2022-09-05T09:31:25.931Z,99742.28
2022-09-05T09:32:29.378Z,99737.38
2022-09-05T09:33:46.153Z,99733.59
2022-09-05T09:35:06.171Z,99741.81
2022-09-05T09:36:39.479Z,99735.59
2022-09-05T09:38:13.916Z,99733.03
2022-09-05T09:39:38.204Z,99731.69
2022-09-05T09:41:10.892Z,99739.81
2022-09-05T09:42:21.102Z,99737.50
2022-09-05T09:43:52.594Z,99736.28
2022-09-05T09:45:22.390Z,99743.00
2022-09-05T09:46:39.343Z,99738.19
2022-09-05T09:48:03.573Z,99737.22
2022-09-05T09:49:29.754Z,99734.97
2022-09-05T09:50:45.059Z,99748.22
2022-09-05T09:52:28.826Z,99740.97
2022-09-05T09:53:57.835Z,99738.75
2022-09-05T09:55:23.426Z,99739.16
2022-09-05T09:56:48.005Z,99748.13
2022-09-05T09:58:04.008Z,99740.53
2022-09-05T09:59:53.998Z,99742.66
2022-09-05T10:01:36.343Z,99751.91
2022-09-05T10:07:26.915Z,99736.91
2022-09-05T10:07:35.465Z,99742.22
2022-09-05T10:10:37.742Z,99737.72
2022-09-05T10:10:52.716Z,99739.94
2022-09-05T10:10:54.226Z,99726.50
2022-09-05T10:13:10.211Z,99732.97
2022-09-05T10:14:30.735Z,99735.75
2022-09-05T10:15:51.746Z,99722.94
2022-09-05T10:17:09.648Z,99725.97
2022-09-05T10:18:50.635Z,99730.69
2022-09-05T10:20:20.152Z,99727.66
2022-09-05T10:23:44.712Z,99712.91
2022-09-05T10:25:19.249Z,99714.13
2022-09-05T10:26:22.410Z,99694.00
2022-09-05T10:27:44.610Z,99705.66
2022-09-05T10:29:34.944Z,99702.25
2022-09-05T10:33:57.010Z,99712.09
2022-09-05T10:35:07.967Z,99711.50
2022-09-05T10:35:14.103Z,99695.88
2022-09-05T10:35:27.349Z,99701.63
2022-09-05T10:36:33.557Z,99696.38
2022-09-05T10:37:43.529Z,99712.00
2022-09-05T10:38:50.768Z,99695.69
2022-09-05T10:39:58.175Z,99695.19
2022-09-05T10:41:21.764Z,99691.97
2022-09-05T10:42:59.899Z,99696.38
2022-09-05T10:44:05.234Z,99689.66
2022-09-05T10:45:16.457Z,99697.13
2022-09-05T10:46:51.097Z,99689.78
2022-09-05T10:48:21.129Z,99690.97
2022-09-05T10:49:34.571Z,99698.75
2022-09-05T10:50:44.154Z,99681.28
2022-09-05T10:51:51.924Z,99682.78
2022-09-05T10:53:09.650Z,99681.16
2022-09-05T10:54:36.568Z,99682.34
2022-09-05T10:56:06.200Z,99680.69
2022-09-05T10:57:35.497Z,99675.59
2022-09-05T11:00:32.600Z,99675.56
2022-09-05T11:02:21.037Z,99678.81
2022-09-05T11:02:28.290Z,99668.50
2022-09-05T11:03:55.791Z,99672.75
2022-09-05T11:05:17.459Z,99665.69
2022-09-05T11:06:34.119Z,99671.22
2022-09-05T11:07:59.120Z,99671.44
2022-09-05T11:09:26.302Z,99663.16
2022-09-05T11:10:49.434Z,99662.38
2022-09-05T11:12:11.578Z,99660.19
2022-09-05T11:13:44.291Z,99666.25
2022-09-05T11:14:51.357Z,99671.31
2022-09-05T11:16:13.483Z,99669.94
2022-09-05T11:17:42.938Z,99661.56
2022-09-05T11:19:06.777Z,99658.25
2022-09-05T11:20:34.858Z,99661.13
2022-09-05T11:22:22.032Z,99669.06
2022-09-05T11:23:40.178Z,99659.88
2022-09-05T11:25:04.021Z,99662.47
2022-09-05T11:26:18.109Z,99660.75
2022-09-05T11:27:35.963Z,99660.38
2022-09-05T11:28:57.607Z,99658.09
2022-09-05T11:30:28.440Z,99662.13
2022-09-05T11:32:00.546Z,99667.22
2022-09-05T11:39:47.982Z,99662.78
2022-09-05T11:39:50.487Z,99663.22
2022-09-05T11:39:51.443Z,99662.84
2022-09-05T11:40:06.360Z,99660.06
2022-09-05T11:40:09.001Z,99660.31
2022-09-05T11:41:40.891Z,99647.19
2022-09-05T11:42:49.183Z,99653.44
2022-09-05T11:44:26.685Z,99648.63
2022-09-05T11:45:59.603Z,99646.00
2022-09-05T11:47:30.184Z,99648.38
2022-09-05T11:48:41.849Z,99639.72
2022-09-05T11:50:25.114Z,99645.03
2022-09-05T11:51:51.502Z,99644.19
2022-09-05T11:53:14.967Z,99647.50
2022-09-05T11:54:27.990Z,99636.84
2022-09-05T11:56:07.676Z,99636.31
2022-09-05T11:57:33.556Z,99641.28
2022-09-05T11:59:13.979Z,99642.56
2022-09-05T12:00:51.858Z,99633.78
2022-09-05T12:02:41.203Z,99637.84
2022-09-05T12:04:05.644Z,99639.13
2022-09-05T12:05:49.561Z,99630.56
2022-09-05T12:07:30.589Z,99629.06
2022-09-05T12:08:54.926Z,99630.69
2022-09-05T12:10:10.500Z,99617.84
2022-09-05T12:11:53.925Z,99629.03
2022-09-05T12:13:21.695Z,99621.56
2022-09-05T12:14:54.857Z,99621.69
2022-09-05T12:16:07.750Z,99627.72
2022-09-05T12:17:35.482Z,99624.09
2022-09-05T12:18:49.229Z,99622.13
2022-09-05T12:20:22.003Z,99607.78
2022-09-05T12:21:41.073Z,99617.34
2022-09-05T12:22:54.485Z,99609.53
2022-09-05T12:25:26.296Z,99613.22
2022-09-05T12:27:40.932Z,99610.47
2022-09-05T12:27:42.378Z,99605.19
2022-09-05T12:29:32.841Z,99603.00
2022-09-05T12:30:15.031Z,99603.50
2022-09-05T12:32:36.563Z,99610.94
2022-09-05T12:35:55.655Z,99601.38
2022-09-05T12:36:10.819Z,99608.63
2022-09-05T12:40:44.988Z,99594.69
2022-09-05T12:40:46.108Z,99601.25
2022-09-05T12:41:32.478Z,99597.72
2022-09-05T12:41:46.220Z,99595.00
2022-09-05T12:42:48.302Z,99595.25
2022-09-05T12:44:38.062Z,99604.94
2022-09-05T12:45:37.821Z,99584.97
2022-09-05T12:46:54.776Z,99591.22
2022-09-05T12:48:22.524Z,99594.41
2022-09-05T12:50:15.580Z,99600.66
2022-09-05T12:51:47.009Z,99589.22
2022-09-05T12:52:51.511Z,99599.66
2022-09-05T12:54:00.402Z,99589.22
2022-09-05T12:55:10.971Z,99585.47
2022-09-05T12:58:34.655Z,99586.63
2022-09-05T13:01:46.269Z,99584.47
2022-09-05T13:03:01.752Z,99583.66
2022-09-05T13:03:03.726Z,99583.50
2022-09-05T13:03:13.003Z,99571.31
2022-09-05T13:04:20.198Z,99569.81
2022-09-05T13:05:42.948Z,99560.47
2022-09-05T13:06:53.367Z,99569.22
2022-09-05T13:07:58.193Z,99580.59
2022-09-05T13:09:13.802Z,99560.72
2022-09-05T13:13:55.019Z,99565.41
2022-09-05T13:14:47.653Z,99563.41
2022-09-05T13:14:55.294Z,99559.75
2022-09-05T13:15:26.978Z,99565.13
2022-09-05T13:16:32.070Z,99563.06
2022-09-05T13:17:51.380Z,99555.34
2022-09-05T13:19:02.235Z,99559.00
2022-09-05T13:20:34.132Z,99563.53
2022-09-05T13:21:45.419Z,99561.91
2022-09-05T13:22:50.454Z,99558.50
2022-09-05T13:24:12.441Z,99543.00
2022-09-05T13:25:20.065Z,99547.66
2022-09-05T13:26:55.416Z,99550.13
2022-09-05T13:28:07.104Z,99543.19
2022-09-05T13:29:13.457Z,99548.56
2022-09-05T13:34:22.008Z,99542.47
2022-09-05T13:37:55.227Z,99553.38
2022-09-05T13:38:11.971Z,99544.75
2022-09-05T13:38:16.163Z,99550.44
2022-09-05T13:38:17.485Z,99542.94
2022-09-05T13:38:19.483Z,99542.34
2022-09-05T13:39:06.571Z,99545.47
2022-09-05T13:40:16.569Z,99539.66
2022-09-05T13:41:28.331Z,99531.63
2022-09-05T13:42:35.247Z,99536.63
2022-09-05T13:43:39.471Z,99537.50
2022-09-05T13:44:46.657Z,99543.13
2022-09-05T13:46:07.804Z,99545.28
2022-09-05T13:47:41.298Z,99545.94
2022-09-05T13:50:32.192Z,99530.09
2022-09-05T13:51:39.300Z,99521.00
2022-09-05T13:52:55.071Z,99526.88
2022-09-05T13:54:26.671Z,99525.84
2022-09-05T13:55:46.282Z,99526.38
2022-09-05T13:57:18.607Z,99527.09
2022-09-05T13:58:56.381Z,99524.78
2022-09-05T14:00:27.552Z,99515.47
2022-09-05T14:01:33.257Z,99521.03
2022-09-05T14:03:30.170Z,99519.41
2022-09-05T14:03:58.149Z,99515.38
2022-09-05T14:05:31.867Z,99519.94
2022-09-05T14:09:35.137Z,99516.44
2022-09-05T14:10:35.604Z,99522.66
2022-09-05T14:11:49.273Z,99512.28
2022-09-05T14:13:02.745Z,99513.94
2022-09-05T14:14:16.789Z,99516.47
2022-09-05T14:15:36.015Z,99522.75
2022-09-05T14:16:52.311Z,99517.31
2022-09-05T14:18:20.582Z,99505.91
2022-09-05T14:21:16.306Z,99508.28
2022-09-05T14:22:44.127Z,99507.94
2022-09-05T14:24:00.681Z,99509.69
2022-09-05T14:25:14.078Z,99508.88
2022-09-05T14:27:06.167Z,99510.88
2022-09-05T14:28:17.892Z,99511.06
2022-09-05T14:29:26.652Z,99500.03
2022-09-05T14:33:21.172Z,99507.06
2022-09-05T14:37:35.182Z,99499.56
2022-09-05T14:37:49.007Z,99504.31
2022-09-05T14:37:52.815Z,99504.63
2022-09-05T14:38:00.489Z,99504.84
2022-09-05T14:38:52.621Z,99505.22
2022-09-05T14:40:29.161Z,99498.91
2022-09-05T14:42:03.587Z,99499.53
2022-09-05T14:43:47.586Z,99490.97
2022-09-05T14:44:59.354Z,99499.19
2022-09-05T14:46:24.028Z,99504.00
2022-09-05T14:47:47.432Z,99496.22
2022-09-05T14:48:56.843Z,99492.91
2022-09-05T14:50:28.061Z,99494.97
2022-09-05T14:51:43.131Z,99497.56
2022-09-05T14:57:18.960Z,99478.63
2022-09-05T15:02:42.334Z,99488.91
2022-09-05T15:02:43.898Z,99470.06
2022-09-05T15:02:53.849Z,99482.31
2022-09-05T15:02:56.626Z,99474.09
2022-09-05T15:05:13.901Z,99481.47
2022-09-05T15:06:21.904Z,99479.81
2022-09-05T15:07:42.013Z,99485.06
2022-09-05T15:11:45.650Z,99476.97
2022-09-05T15:12:14.138Z,99480.31
2022-09-05T15:12:22.947Z,99476.03
2022-09-05T15:13:10.303Z,99474.03
2022-09-05T15:14:13.362Z,99475.66
2022-09-05T15:15:39.170Z,99474.69
2022-09-05T15:16:58.066Z,99482.22
2022-09-05T15:18:09.158Z,99471.06
2022-09-05T15:19:32.743Z,99458.66
2022-09-05T15:20:47.027Z,99471.22
2022-09-05T15:21:49.511Z,99463.91
2022-09-05T15:22:57.405Z,99464.38
2022-09-05T15:24:03.149Z,99460.06
2022-09-05T15:25:19.089Z,99467.94
2022-09-05T15:26:26.590Z,99462.72
2022-09-05T15:27:30.553Z,99460.44
2022-09-05T15:28:37.855Z,99453.47
2022-09-05T15:29:41.752Z,99454.69
2022-09-05T15:31:00.019Z,99461.31
2022-09-05T15:32:21.606Z,99457.81
2022-09-05T15:33:29.879Z,99460.44
2022-09-05T15:34:33.282Z,99455.53
2022-09-05T15:35:39.477Z,99455.63
2022-09-05T15:36:41.784Z,99440.75
2022-09-05T15:37:45.054Z,99438.66
2022-09-05T15:38:55.957Z,99441.72
2022-09-05T15:40:21.909Z,99439.94
2022-09-05T15:41:29.110Z,99439.94
2022-09-05T15:42:34.531Z,99439.31
2022-09-05T15:44:09.847Z,99437.72
2022-09-05T15:45:17.893Z,99442.03
2022-09-05T15:46:49.654Z,99443.25
2022-09-05T15:48:15.634Z,99438.78
2022-09-05T15:49:28.511Z,99429.34
2022-09-05T15:50:43.241Z,99431.19
2022-09-05T15:51:53.955Z,99430.97
2022-09-05T15:52:56.886Z,99436.25
2022-09-05T15:54:01.280Z,99437.81
2022-09-05T15:55:13.781Z,99434.00
2022-09-05T15:56:20.960Z,99434.28
2022-09-05T15:57:37.031Z,99432.00
2022-09-05T15:58:54.031Z,99441.44
2022-09-05T16:00:01.130Z,99441.56
2022-09-05T16:01:30.491Z,99437.50
2022-09-05T16:02:44.933Z,99428.47
2022-09-05T16:10:30.389Z,99436.22
2022-09-05T16:10:31.606Z,99436.91
2022-09-05T16:10:42.751Z,99442.69
2022-09-05T16:10:44.906Z,99420.19
2022-09-05T16:10:50.977Z,99423.06
2022-09-05T16:12:51.551Z,99425.88
2022-09-05T16:14:12.882Z,99421.47
2022-09-05T16:19:40.963Z,99423.66
2022-09-05T16:23:12.829Z,99419.13
2022-09-05T16:23:19.843Z,99415.91
2022-09-05T16:23:30.262Z,99417.78
2022-09-05T16:23:34.266Z,99417.47
2022-09-05T16:23:37.743Z,99402.81
2022-09-05T16:24:41.566Z,99415.25
2022-09-05T16:26:04.852Z,99410.16
2022-09-05T16:27:08.205Z,99414.63
2022-09-05T16:28:24.109Z,99410.78
2022-09-05T16:29:30.055Z,99410.78
2022-09-05T16:30:35.406Z,99406.94
2022-09-05T16:31:45.691Z,99398.28
2022-09-05T16:32:51.141Z,99407.03
2022-09-05T16:33:54.550Z,99404.47
2022-09-05T16:35:03.346Z,99409.06
2022-09-05T16:36:22.764Z,99401.44
2022-09-05T16:37:48.439Z,99408.19
2022-09-05T16:39:01.347Z,99397.94
2022-09-05T16:40:14.708Z,99405.69
2022-09-05T16:41:55.521Z,99401.78
2022-09-05T16:43:21.094Z,99396.38
2022-09-05T16:44:35.697Z,99409.22
2022-09-05T16:45:49.408Z,99405.34
2022-09-05T16:47:31.697Z,99407.03
2022-09-05T16:48:55.547Z,99396.94
2022-09-05T16:50:06.831Z,99406.22
2022-09-05T16:51:35.355Z,99408.41
2022-09-05T16:52:53.280Z,99396.78
2022-09-05T16:54:04.710Z,99398.06
2022-09-05T16:55:29.319Z,99399.41
2022-09-05T16:56:51.120Z,99396.91
2022-09-05T16:58:08.899Z,99397.06
2022-09-05T16:59:21.256Z,99396.19
2022-09-05T17:00:23.818Z,99393.78
2022-09-05T17:01:47.650Z,99400.63